Map

Track Data

SID SEASON NUMBER BASIN SUBBASIN NAME ISO_TIME NATURE LAT LON WMO_WIND WMO_PRES WMO_AGENCY TRACK_TYPE DIST2LAND LANDFALL IFLAG USA_AGENCY USA_ATCF_ID USA_LAT USA_LON USA_RECORD USA_STATUS USA_WIND USA_PRES USA_SSHS USA_R34_NE USA_R34_SE USA_R34_SW USA_R34_NW USA_R50_NE USA_R50_SE USA_R50_SW USA_R50_NW USA_R64_NE USA_R64_SE USA_R64_SW USA_R64_NW USA_POCI USA_ROCI USA_RMW USA_EYE TOKYO_LAT TOKYO_LON TOKYO_GRADE TOKYO_WIND TOKYO_PRES TOKYO_R50_DIR TOKYO_R50_LONG TOKYO_R50_SHORT TOKYO_R30_DIR TOKYO_R30_LONG TOKYO_R30_SHORT TOKYO_LAND CMA_LAT CMA_LON CMA_CAT CMA_WIND CMA_PRES HKO_LAT HKO_LON HKO_CAT HKO_WIND HKO_PRES NEWDELHI_LAT NEWDELHI_LON NEWDELHI_GRADE NEWDELHI_WIND NEWDELHI_PRES NEWDELHI_CI NEWDELHI_DP NEWDELHI_POCI REUNION_LAT REUNION_LON REUNION_TYPE REUNION_WIND REUNION_PRES REUNION_TNUM REUNION_CI REUNION_RMW REUNION_R34_NE REUNION_R34_SE REUNION_R34_SW REUNION_R34_NW REUNION_R50_NE REUNION_R50_SE REUNION_R50_SW REUNION_R50_NW REUNION_R64_NE REUNION_R64_SE REUNION_R64_SW REUNION_R64_NW BOM_LAT BOM_LON BOM_TYPE BOM_WIND BOM_PRES BOM_TNUM BOM_CI BOM_RMW BOM_R34_NE BOM_R34_SE BOM_R34_SW BOM_R34_NW BOM_R50_NE BOM_R50_SE BOM_R50_SW BOM_R50_NW BOM_R64_NE BOM_R64_SE BOM_R64_SW BOM_R64_NW BOM_ROCI BOM_POCI BOM_EYE BOM_POS_METHOD BOM_PRES_METHOD NADI_LAT NADI_LON NADI_CAT NADI_WIND NADI_PRES WELLINGTON_LAT WELLINGTON_LON WELLINGTON_WIND WELLINGTON_PRES DS824_LAT DS824_LON DS824_STAGE DS824_WIND DS824_PRES TD9636_LAT TD9636_LON TD9636_STAGE TD9636_WIND TD9636_PRES TD9635_LAT TD9635_LON TD9635_WIND TD9635_PRES TD9635_ROCI NEUMANN_LAT NEUMANN_LON NEUMANN_CLASS NEUMANN_WIND NEUMANN_PRES MLC_LAT MLC_LON MLC_CLASS MLC_WIND MLC_PRES USA_GUST BOM_GUST BOM_GUST_PER REUNION_GUST REUNION_GUST_PER USA_SEAHGT USA_SEARAD_NE USA_SEARAD_SE USA_SEARAD_SW USA_SEARAD_NW STORM_SPEED STORM_DIR
1898313N31314 1898 58 NA NA NOT_NAMED 1898-11-08 12:00:00 TS 31.0000 -46.0000 main 1842 1837 _____________O -1 31.0000 -46.0000 TD 30 3 274
1898313N31314 1898 58 NA NA NOT_NAMED 1898-11-08 15:00:00 TS 31.0126 -46.1999 main 1837 1831 _____________P -1 31.0126 -46.1999 TD 32 3 270
1898313N31314 1898 58 NA NA NOT_NAMED 1898-11-08 18:00:00 SS 31.0000 -46.4000 main 1831 1826 _____________O -1 31.0000 -46.4000 SS 35 3 262
1898313N31314 1898 58 NA NA NOT_NAMED 1898-11-08 21:00:00 SS 30.9625 -46.6002 main 1826 1821 _____________P -1 30.9625 -46.6002 SS 37 3 270
1898313N31314 1898 58 NA NA NOT_NAMED 1898-11-09 00:00:00 SS 31.0000 -46.8000 main 1821 1794 _____________O -1 31.0000 -46.8000 SS 40 4 306
1898313N31314 1898 58 NA NA NOT_NAMED 1898-11-09 03:00:00 SS 31.2125 -47.0073 main 1794 1757 _____________P -1 31.2125 -47.0073 SS 40 6 326
1898313N31314 1898 58 NA NA NOT_NAMED 1898-11-09 06:00:00 SS 31.5000 -47.2000 main 1757 1722 _____________O -1 31.5000 -47.2000 SS 40 6 338
1898313N31314 1898 58 NA NA NOT_NAMED 1898-11-09 09:00:00 SS 31.8095 -47.2898 main 1722 1695 _____________P -1 31.8095 -47.2898 SS 42 6 333
1898313N31314 1898 58 NA NA NOT_NAMED 1898-11-09 12:00:00 SS 32.0000 -47.5000 main 1695 1686 _____________O -1 32.0000 -47.5000 SS 45 6 280
1898313N31314 1898 58 NA NA NOT_NAMED 1898-11-09 15:00:00 SS 31.9180 -48.0406 main 1695 1688 _____________P -1 31.9180 -48.0406 SS 45 11 254
1898313N31314 1898 58 NA NA NOT_NAMED 1898-11-09 18:00:00 TS 31.7000 -48.7000 main 1702 1700 _____________O -1 31.7000 -48.7000 TS 45 11 248
1898313N31314 1898 58 NA NA NOT_NAMED 1898-11-09 21:00:00 TS 31.5072 -49.2574 main 1713 1711 _____________P -1 31.5072 -49.2574 TS 47 10 247
1898313N31314 1898 58 NA NA NOT_NAMED 1898-11-10 00:00:00 TS 31.3000 -49.8000 main 1727 1726 _____________O -1 31.3000 -49.8000 TS 50 10 246
1898313N31314 1898 58 NA NA NOT_NAMED 1898-11-10 03:00:00 TS 31.0998 -50.3498 main 1743 1740 _____________P -1 31.0998 -50.3498 TS 52 10 247
1898313N31314 1898 58 NA NA NOT_NAMED 1898-11-10 06:00:00 TS 30.9000 -50.9000 main 1758 1757 _____________O -1 30.9000 -50.9000 TS 55 11 248
1898313N31314 1898 58 NA NA NOT_NAMED 1898-11-10 09:00:00 TS 30.7003 -51.5101 main 1776 1775 _____________P -1 30.7003 -51.5101 TS 57 10 247
1898313N31314 1898 58 NA NA NOT_NAMED 1898-11-10 12:00:00 TS 30.5000 -52.0000 main 1795 1794 _____________O -1 30.5000 -52.0000 TS 60 7 236
1898313N31314 1898 58 NA NA NOT_NAMED 1898-11-10 15:00:00 TS 30.2996 -52.2096 main 1816 1816 _____________P -1 30.2996 -52.2096 TS 60 5 213
1898313N31314 1898 58 NA NA NOT_NAMED 1898-11-10 18:00:00 TS 30.1000 -52.3000 main 1838 1838 _____________O -1 30.1000 -52.3000 TS 60 4 208
1898313N31314 1898 58 NA NA NOT_NAMED 1898-11-10 21:00:00 TS 29.9075 -52.4499 main 1852 1823 _____________P -1 29.9075 -52.4499 TS 57 5 213
1898313N31314 1898 58 NA NA NOT_NAMED 1898-11-11 00:00:00 TS 29.7000 -52.6000 main 1823 1801 _____________O -1 29.7000 -52.6000 TS 55 5 210
1898313N31314 1898 58 NA NA NOT_NAMED 1898-11-11 03:00:00 TS 29.4500 -52.7500 main 1794 1765 _____________P -1 29.4500 -52.7500 TS 55 6 208
1898313N31314 1898 58 NA NA NOT_NAMED 1898-11-11 06:00:00 TS 29.2000 -52.9000 main 1765 1750 _____________O -1 29.2000 -52.9000 TS 55 5 216
1898313N31314 1898 58 NA NA NOT_NAMED 1898-11-11 09:00:00 TS 29.0750 -53.0572 main 1743 1714 _____________P -1 29.0750 -53.0572 TS 52 5 213
1898313N31314 1898 58 NA NA NOT_NAMED 1898-11-11 12:00:00 TS 28.8000 -53.2000 main 1714 1664 _____________O -1 28.8000 -53.2000 TS 50 10 193
1898313N31314 1898 58 NA NA NOT_NAMED 1898-11-11 15:00:00 TS 28.1324 -53.3075 main 1657 1602 _____________P -1 28.1324 -53.3075 TS 50 15 187
1898313N31314 1898 58 NA NA NOT_NAMED 1898-11-11 18:00:00 TS 27.3000 -53.4000 main 1595 1530 _____________O -1 27.3000 -53.4000 TS 50 18 186
1898313N31314 1898 58 NA NA NOT_NAMED 1898-11-11 21:00:00 TS 26.3625 -53.5003 main 1530 1485 _____________P -1 26.3625 -53.5003 TS 47 15 187
1898313N31314 1898 58 NA NA NOT_NAMED 1898-11-12 00:00:00 TS 25.8000 -53.6000 main 1485 1483 _____________O -1 25.8000 -53.6000 TS 45 3 214
1898313N31314 1898 58 NA NA NOT_NAMED 1898-11-12 03:00:00 TS 26.0975 -53.6996 main 1495 1495 _____________P -1 26.0975 -53.6996 TS 45 10 350
1898313N31314 1898 58 NA NA NOT_NAMED 1898-11-12 06:00:00 TS 26.8000 -53.8000 main 1530 1530 _____________O -1 26.8000 -53.8000 TS 45 14 350
1898313N31314 1898 58 NA NA NOT_NAMED 1898-11-12 09:00:00 TS 27.4749 -53.9670 main 1561 1561 _____________P -1 27.4749 -53.9670 TS 45 12 352
1898313N31314 1898 58 NA NA NOT_NAMED 1898-11-12 12:00:00 TS 28.0000 -54.0000 main 1596 1596 _____________O -1 28.0000 -54.0000 TS 45 7 20
1898313N31314 1898 58 NA NA NOT_NAMED 1898-11-12 15:00:00 TS 28.0902 -53.7099 main 1626 1626 _____________P -1 28.0902 -53.7099 TS 45 6 90
1898313N31314 1898 58 NA NA NOT_NAMED 1898-11-12 18:00:00 TS 28.0000 -53.3000 main 1650 1650 _____________O -1 28.0000 -53.3000 TS 45 6 98
1898313N31314 1898 58 NA NA NOT_NAMED 1898-11-12 21:00:00 TS 27.9999 -52.9925 main 1673 1673 _____________P -1 27.9999 -52.9925 TS 45 5 90
1898313N31314 1898 58 NA NA NOT_NAMED 1898-11-13 00:00:00 TS 28.0000 -52.7000 main 1697 1697 _____________O -1 28.0000 -52.7000 TS 45 5 90
1898313N31314 1898 58 NA NA NOT_NAMED 1898-11-13 03:00:00 TS 27.9999 -52.4000 main 1720 1720 _____________P -1 27.9999 -52.4000 TS 42 5 90
1898313N31314 1898 58 NA NA NOT_NAMED 1898-11-13 06:00:00 TS 28.0000 -52.1000 main 1744 1744 _____________O -1 28.0000 -52.1000 TS 40 5 98
1898313N31314 1898 58 NA NA NOT_NAMED 1898-11-13 09:00:00 TS 27.9249 -51.7994 main 1762 1762 _____________P -1 27.9249 -51.7994 TS 40 5 90
1898313N31314 1898 58 NA NA NOT_NAMED 1898-11-13 12:00:00 TS 28.0000 -51.5000 main 1793 1793 _____________O -1 28.0000 -51.5000 TS 40 7 47
1898313N31314 1898 58 NA NA NOT_NAMED 1898-11-13 15:00:00 TS 28.4250 -51.2003 main 1842 1842 _____________P -1 28.4250 -51.2003 TS 40 11 28
1898313N31314 1898 58 NA NA NOT_NAMED 1898-11-13 18:00:00 TS 29.0000 -50.9000 main 1904 1904 _____________O -1 29.0000 -50.9000 TS 40 12 26
1898313N31314 1898 58 NA NA NOT_NAMED 1898-11-13 21:00:00 TS 29.4999 -50.5997 main 1917 1865 _____________P -1 29.4999 -50.5997 TS 40 11 28
1898313N31314 1898 58 NA NA NOT_NAMED 1898-11-14 00:00:00 TS 30.0000 -50.3000 main 1865 1813 _____________O -1 30.0000 -50.3000 TS 40 11 27
1898313N31314 1898 58 NA NA NOT_NAMED 1898-11-14 03:00:00 TS 30.4999 -50.0071 main 1813 1762 _____________P -1 30.4999 -50.0071 TS 40 11 27
1898313N31314 1898 58 NA NA NOT_NAMED 1898-11-14 06:00:00 TS 31.0000 -49.7000 main 1762 1711 _____________O -1 31.0000 -49.7000 TS 40 12 28
1898313N31314 1898 58 NA NA NOT_NAMED 1898-11-14 09:00:00 TS 31.5751 -49.3432 main 1702 1662 _____________P -1 31.5751 -49.3432 TS 37 12 31
1898313N31314 1898 58 NA NA NOT_NAMED 1898-11-14 12:00:00 TS 32.0000 -49.0000 main 1663 1654 _____________O -1 32.0000 -49.0000 TS 35 7 46
1898313N31314 1898 58 NA NA NOT_NAMED 1898-11-14 15:00:00 TS 32.0748 -48.7342 main 1658 1658 _____________P -1 32.0748 -48.7342 TS 35 4 90
1898313N31314 1898 58 NA NA NOT_NAMED 1898-11-14 18:00:00 TS 32.0000 -48.5000 main 1673 1673 _____________O -1 32.0000 -48.5000 TS 35 4 100
1898313N31314 1898 58 NA NA NOT_NAMED 1898-11-14 21:00:00 TS 32.0000 -48.2500 main 1679 1677 _____________P -1 32.0000 -48.2500 TS 32 4 90
1898313N31314 1898 58 NA NA NOT_NAMED 1898-11-15 00:00:00 ET 32.0000 -48.0000 main 1684 1684 _____________O -1 32.0000 -48.0000 EX 30 4 90
1898313N31314 1898 58 NA NA NOT_NAMED 1898-11-15 03:00:00 ET 32.0000 -47.7500 main 1691 1688 _____________P -1 32.0000 -47.7500 EX 30 4 90
1898313N31314 1898 58 NA NA NOT_NAMED 1898-11-15 06:00:00 ET 32.0000 -47.5000 main 1695 1695 _____________O -1 32.0000 -47.5000 EX 30 4 113
1898313N31314 1898 58 NA NA NOT_NAMED 1898-11-15 09:00:00 ET 31.8346 -47.2924 main 1722 1708 _____________P -1 31.8346 -47.2924 EX 30 4 90
1898313N31314 1898 58 NA NA NOT_NAMED 1898-11-15 12:00:00 ET 32.0000 -47.0000 main 1708 1626 _____________O -1 32.0000 -47.0000 EX 30 13 31
1898313N31314 1898 58 NA NA NOT_NAMED 1898-11-15 15:00:00 ET 32.9428 -46.5043 main 1626 1516 _____________P -1 32.9428 -46.5043 EX 27 24 23
1898313N31314 1898 58 NA NA NOT_NAMED 1898-11-15 18:00:00 ET 34.2000 -45.9000 main 1509 1418 _____________O -1 34.2000 -45.9000 EX 25 26 23
1898313N31314 1898 58 NA NA NOT_NAMED 1898-11-15 21:00:00 ET 35.3151 -45.2960 main 1418 1349 _____________P -1 35.3151 -45.2960 EX 25 23 25
1898313N31314 1898 58 NA NA NOT_NAMED 1898-11-16 00:00:00 ET 36.3000 -44.7000 main 1344 _____________O -1 36.3000 -44.7000 EX 25 22 26

About IBTrACS Database

This database is a web-friendly format of International Best Track Archive for Climate Stewardship (IBTrACS), a global best track data archive curated by NOAA dating back to 1842.

Updated: 2021-10-21